createdAt,value
2019-03-26T00:00:27.562Z,81.99
2019-03-26T00:02:54.926Z,81.06
2019-03-26T00:05:22.221Z,81.43
2019-03-26T00:07:49.409Z,81.40
2019-03-26T00:10:16.597Z,81.17
2019-03-26T00:12:43.928Z,81.50
2019-03-26T00:15:11.129Z,82.76
2019-03-26T00:17:38.420Z,81.73
2019-03-26T00:20:05.696Z,82.07
2019-03-26T00:22:33.018Z,82.76
2019-03-26T00:25:00.494Z,81.99
2019-03-26T00:27:27.766Z,82.40
2019-03-26T00:29:55.044Z,82.39
2019-03-26T00:32:23.592Z,81.93
2019-03-26T00:34:50.942Z,82.33
2019-03-26T00:37:18.296Z,82.12
2019-03-26T00:39:45.474Z,82.81
2019-03-26T00:42:12.657Z,82.20
2019-03-26T00:44:39.997Z,81.76
2019-03-26T00:47:07.182Z,81.60
2019-03-26T00:49:34.359Z,81.72
2019-03-26T00:52:01.676Z,82.30
2019-03-26T00:54:28.867Z,82.39
2019-03-26T00:56:56.107Z,82.46
2019-03-26T00:59:23.521Z,81.92
2019-03-26T01:01:50.786Z,81.88
2019-03-26T01:04:18.001Z,81.65
2019-03-26T01:06:45.348Z,82.50
2019-03-26T01:09:12.633Z,83.25
2019-03-26T01:11:40.011Z,82.36
2019-03-26T01:14:07.333Z,83.66
2019-03-26T01:16:34.512Z,82.65
2019-03-26T01:19:01.742Z,82.12
2019-03-26T01:21:28.960Z,82.32
2019-03-26T01:23:56.237Z,82.45
2019-03-26T01:26:23.594Z,82.46
2019-03-26T01:28:50.869Z,82.60
2019-03-26T01:31:18.147Z,83.19
2019-03-26T01:33:45.391Z,82.73
2019-03-26T01:36:12.620Z,83.15
2019-03-26T01:38:39.916Z,82.99
2019-03-26T01:41:07.282Z,83.21
2019-03-26T01:43:34.671Z,83.11
2019-03-26T01:46:01.867Z,83.39
2019-03-26T01:48:29.265Z,83.34
2019-03-26T01:50:56.547Z,83.41
2019-03-26T01:53:23.748Z,83.61
2019-03-26T01:55:51.099Z,83.46
2019-03-26T01:58:18.328Z,83.52
2019-03-26T02:00:45.518Z,83.34
2019-03-26T02:03:12.701Z,83.80
2019-03-26T02:05:39.988Z,83.73
2019-03-26T02:08:07.232Z,83.97
2019-03-26T02:10:34.642Z,83.85
2019-03-26T02:13:02.012Z,83.53
2019-03-26T02:15:30.949Z,83.80
2019-03-26T02:17:58.833Z,84.49
2019-03-26T02:20:26.148Z,84.23
2019-03-26T02:22:53.452Z,84.36
2019-03-26T02:25:20.679Z,83.93
2019-03-26T02:27:47.871Z,84.04
2019-03-26T02:30:15.219Z,83.98
2019-03-26T02:32:42.533Z,84.56
2019-03-26T02:35:17.608Z,85.29
2019-03-26T02:37:38.929Z,83.53
2019-03-26T02:40:06.241Z,83.62
2019-03-26T02:42:33.444Z,83.12
2019-03-26T02:45:01.001Z,83.01
2019-03-26T02:47:28.447Z,84.05
2019-03-26T02:49:55.749Z,84.04
2019-03-26T02:52:23.047Z,83.65
2019-03-26T02:54:50.356Z,83.75
2019-03-26T02:57:17.677Z,82.65
2019-03-26T02:59:44.979Z,82.31
2019-03-26T03:02:12.328Z,82.98
2019-03-26T03:04:39.532Z,82.89
2019-03-26T03:07:06.724Z,82.84
2019-03-26T03:09:34.019Z,82.22
2019-03-26T03:12:01.322Z,82.69
2019-03-26T03:14:28.679Z,82.03
2019-03-26T03:16:56.022Z,82.02
2019-03-26T03:19:23.219Z,83.15
2019-03-26T03:21:50.519Z,82.50
2019-03-26T03:24:17.838Z,82.09
2019-03-26T03:26:45.039Z,82.50
2019-03-26T03:29:12.252Z,82.33
2019-03-26T03:31:39.596Z,81.53
2019-03-26T03:34:06.904Z,81.32
2019-03-26T03:36:34.120Z,81.70
2019-03-26T03:39:01.353Z,81.46
2019-03-26T03:41:28.588Z,82.26
2019-03-26T03:43:55.960Z,81.26
2019-03-26T03:46:23.285Z,80.65
2019-03-26T03:48:50.469Z,81.20
2019-03-26T03:51:19.470Z,81.21
2019-03-26T03:53:46.832Z,82.26
2019-03-26T03:56:15.749Z,81.44
2019-03-26T03:58:44.624Z,81.20
2019-03-26T04:01:11.917Z,81.23
2019-03-26T04:03:39.118Z,81.86
2019-03-26T04:06:09.749Z,81.82
2019-03-26T04:08:35.620Z,81.00
2019-03-26T04:11:03.190Z,81.04
2019-03-26T04:13:30.431Z,80.74
2019-03-26T04:15:57.790Z,81.16
2019-03-26T04:18:24.976Z,81.20
2019-03-26T04:20:52.167Z,80.92
2019-03-26T04:23:19.557Z,80.69
2019-03-26T04:25:46.852Z,80.91
2019-03-26T04:28:14.145Z,80.55
2019-03-26T04:30:41.541Z,81.43
2019-03-26T04:33:08.780Z,82.46
2019-03-26T04:35:36.283Z,81.70
2019-03-26T04:38:03.741Z,81.21
2019-03-26T04:40:31.209Z,80.55
2019-03-26T04:42:58.607Z,81.30
2019-03-26T04:45:26.012Z,81.04
2019-03-26T04:47:53.385Z,79.98
2019-03-26T04:50:20.796Z,79.57
2019-03-26T04:52:48.015Z,79.07
2019-03-26T04:55:17.536Z,78.91
2019-03-26T04:57:44.794Z,80.15
2019-03-26T05:00:12.260Z,79.82
2019-03-26T05:02:39.467Z,78.81
2019-03-26T05:05:06.688Z,78.89
2019-03-26T05:07:33.992Z,78.96
2019-03-26T05:10:01.416Z,79.44
2019-03-26T05:12:28.819Z,78.25
2019-03-26T05:14:57.174Z,79.04
2019-03-26T05:17:24.484Z,78.40
2019-03-26T05:19:51.867Z,78.26
2019-03-26T05:22:24.322Z,78.58
2019-03-26T05:24:48.395Z,78.48
2019-03-26T05:27:15.601Z,79.10
2019-03-26T05:29:42.799Z,78.23
2019-03-26T05:32:10.141Z,79.03
2019-03-26T05:34:37.406Z,78.93
2019-03-26T05:37:04.700Z,78.82
2019-03-26T05:39:32.303Z,79.61
2019-03-26T05:41:59.491Z,79.30
2019-03-26T05:44:26.771Z,78.86
2019-03-26T05:46:53.950Z,79.26
2019-03-26T05:49:21.316Z,79.15
2019-03-26T05:51:48.531Z,79.07
2019-03-26T05:54:15.933Z,80.36
2019-03-26T05:56:43.164Z,80.58
2019-03-26T05:59:10.544Z,79.87
2019-03-26T06:01:37.984Z,79.41
2019-03-26T06:04:05.588Z,79.38
2019-03-26T06:06:32.903Z,79.47
2019-03-26T06:09:00.134Z,79.57
2019-03-26T06:11:27.482Z,78.63
2019-03-26T06:13:54.810Z,79.76
2019-03-26T06:16:22.120Z,78.66
2019-03-26T06:18:49.530Z,77.96
2019-03-26T06:21:17.136Z,78.26
2019-03-26T06:23:44.436Z,78.80
2019-03-26T06:26:11.809Z,78.96
2019-03-26T06:28:39.113Z,78.26
2019-03-26T06:31:06.403Z,77.82
2019-03-26T06:33:33.762Z,78.12
2019-03-26T06:36:00.974Z,77.18
2019-03-26T06:38:28.201Z,78.11
2019-03-26T06:40:55.606Z,76.87
2019-03-26T06:43:22.927Z,77.28
2019-03-26T06:45:50.127Z,77.88
2019-03-26T06:48:17.573Z,77.75
2019-03-26T06:50:44.966Z,76.72
2019-03-26T06:53:12.159Z,77.14
2019-03-26T06:55:39.556Z,77.53
2019-03-26T06:58:06.853Z,77.04
2019-03-26T07:00:34.252Z,76.77
2019-03-26T07:03:03.348Z,77.32
2019-03-26T07:05:30.681Z,76.38
2019-03-26T07:07:58.007Z,75.94
2019-03-26T07:10:26.917Z,77.44
2019-03-26T07:12:54.265Z,76.75
2019-03-26T07:15:21.604Z,76.68
2019-03-26T07:17:48.796Z,75.44
2019-03-26T07:20:16.108Z,75.85
2019-03-26T07:22:43.353Z,76.83
2019-03-26T07:25:10.666Z,75.21
2019-03-26T07:27:37.985Z,75.57
2019-03-26T07:30:07.798Z,76.91
2019-03-26T07:32:35.159Z,75.57
2019-03-26T07:35:02.553Z,76.46
2019-03-26T07:37:29.882Z,75.70
2019-03-26T07:39:57.192Z,75.80
2019-03-26T07:42:24.530Z,73.93
2019-03-26T07:44:51.744Z,74.01
2019-03-26T07:47:19.140Z,73.81
2019-03-26T07:49:46.367Z,74.78
2019-03-26T07:52:15.661Z,75.60
2019-03-26T07:54:42.874Z,74.47
2019-03-26T07:57:10.212Z,74.15
2019-03-26T07:59:37.633Z,74.52
2019-03-26T08:02:04.826Z,74.53
2019-03-26T08:04:32.140Z,74.92
2019-03-26T08:06:59.587Z,73.97
2019-03-26T08:09:27.189Z,74.76
2019-03-26T08:11:54.557Z,75.16
2019-03-26T08:14:22.013Z,74.27
2019-03-26T08:16:49.525Z,74.54
2019-03-26T08:19:16.856Z,75.19
2019-03-26T08:21:44.198Z,73.94
2019-03-26T08:24:12.167Z,74.15
2019-03-26T08:26:39.390Z,73.99
2019-03-26T08:29:06.717Z,74.47
2019-03-26T08:31:34.370Z,74.62
2019-03-26T08:34:01.691Z,72.40
2019-03-26T08:36:29.017Z,73.54
2019-03-26T08:38:56.251Z,73.02
2019-03-26T08:41:23.597Z,73.26
2019-03-26T08:43:50.935Z,72.16
2019-03-26T08:46:18.300Z,71.03
2019-03-26T08:48:45.871Z,70.40
2019-03-26T08:51:13.076Z,71.98
2019-03-26T08:53:40.414Z,72.67
2019-03-26T08:56:08.011Z,72.48
2019-03-26T08:58:35.358Z,71.04
2019-03-26T09:01:02.747Z,72.29
2019-03-26T09:03:30.222Z,72.10
2019-03-26T09:05:57.557Z,71.20
2019-03-26T09:08:25.848Z,68.74
2019-03-26T09:10:53.256Z,70.53
2019-03-26T09:13:20.506Z,67.91
2019-03-26T09:15:47.813Z,68.85
2019-03-26T09:18:15.351Z,70.03
2019-03-26T09:20:43.162Z,69.44
2019-03-26T09:23:12.275Z,67.06
2019-03-26T09:25:40.624Z,68.06
2019-03-26T09:28:08.046Z,66.91
2019-03-26T09:30:35.746Z,65.67
2019-03-26T09:33:03.164Z,63.05
2019-03-26T09:35:30.394Z,60.67
2019-03-26T09:37:57.957Z,58.99
2019-03-26T09:40:25.432Z,58.95
2019-03-26T09:42:52.772Z,59.00
2019-03-26T09:45:20.012Z,55.29
2019-03-26T09:47:47.384Z,51.97
2019-03-26T09:50:19.266Z,54.07
2019-03-26T09:52:46.806Z,53.15
2019-03-26T09:55:14.130Z,49.46
2019-03-26T09:57:41.944Z,49.51
2019-03-26T10:00:10.592Z,48.17
2019-03-26T10:02:37.945Z,50.75
2019-03-26T10:05:06.125Z,49.63
2019-03-26T10:07:33.777Z,47.87
2019-03-26T10:10:01.010Z,48.44
2019-03-26T10:12:28.380Z,48.64
2019-03-26T10:14:56.808Z,46.26
2019-03-26T10:17:24.377Z,46.18
2019-03-26T10:19:51.732Z,46.37
2019-03-26T10:22:20.131Z,44.89
2019-03-26T10:24:47.591Z,47.42
2019-03-26T10:27:15.015Z,46.66
2019-03-26T10:29:42.216Z,44.89
2019-03-26T10:32:09.619Z,45.88
2019-03-26T10:34:37.367Z,47.34
2019-03-26T10:37:04.608Z,43.72
2019-03-26T10:39:33.488Z,45.15
2019-03-26T10:42:01.088Z,42.32
2019-03-26T10:44:28.766Z,46.06
2019-03-26T10:46:56.235Z,44.15
2019-03-26T10:49:23.704Z,46.33
2019-03-26T10:51:50.970Z,47.09
2019-03-26T10:54:18.397Z,45.45
2019-03-26T10:56:47.089Z,46.75
2019-03-26T10:59:14.731Z,45.95
2019-03-26T11:01:42.169Z,47.60
2019-03-26T11:04:09.519Z,48.52
2019-03-26T11:06:36.866Z,49.29
2019-03-26T11:09:18.910Z,49.22
2019-03-26T11:11:35.293Z,50.42
2019-03-26T11:14:02.811Z,51.19
2019-03-26T11:16:30.176Z,50.64
2019-03-26T11:18:57.548Z,50.85
2019-03-26T11:21:24.856Z,50.96
2019-03-26T11:23:52.146Z,48.77
2019-03-26T11:26:19.441Z,49.48
2019-03-26T11:28:46.685Z,45.87
2019-03-26T11:31:14.046Z,46.21
2019-03-26T11:33:41.364Z,47.58
2019-03-26T11:36:08.688Z,47.27
2019-03-26T11:38:36.059Z,46.64
2019-03-26T11:41:03.353Z,46.44
2019-03-26T11:43:30.634Z,45.77
2019-03-26T11:45:58.006Z,48.45
2019-03-26T11:48:25.243Z,47.72
2019-03-26T11:50:52.545Z,45.96
2019-03-26T11:53:19.886Z,47.86
2019-03-26T11:55:47.248Z,48.66
2019-03-26T11:58:14.571Z,46.42
2019-03-26T12:00:41.850Z,46.72
2019-03-26T12:03:09.152Z,47.45
2019-03-26T12:05:36.353Z,43.50
2019-03-26T12:08:03.696Z,44.77
2019-03-26T12:10:31.000Z,44.90
2019-03-26T12:12:58.400Z,41.83
2019-03-26T12:15:25.862Z,44.83
2019-03-26T12:17:53.402Z,42.93
2019-03-26T12:20:20.811Z,43.02
2019-03-26T12:22:49.033Z,42.57
2019-03-26T12:25:16.679Z,43.67
2019-03-26T12:27:51.689Z,43.77
2019-03-26T12:30:31.661Z,44.55
2019-03-26T12:32:59.256Z,45.06
2019-03-26T12:35:29.820Z,43.49
2019-03-26T12:38:02.924Z,44.85
2019-03-26T12:40:30.736Z,46.04
2019-03-26T12:42:58.300Z,46.60
2019-03-26T12:45:25.680Z,47.48
2019-03-26T12:47:53.027Z,46.84
2019-03-26T12:50:20.362Z,47.81
2019-03-26T12:52:47.690Z,47.01
2019-03-26T12:55:15.228Z,47.11
2019-03-26T12:57:42.573Z,48.58
2019-03-26T13:00:10.888Z,49.32
2019-03-26T13:02:38.438Z,48.96
2019-03-26T13:05:06.202Z,48.87
2019-03-26T13:07:33.821Z,49.59
2019-03-26T13:10:12.724Z,50.06
2019-03-26T13:12:31.541Z,49.93
2019-03-26T13:14:59.522Z,49.53
2019-03-26T13:17:28.439Z,49.78
2019-03-26T13:19:56.776Z,48.74
2019-03-26T13:22:24.777Z,47.20
2019-03-26T13:24:53.377Z,46.39
2019-03-26T13:27:20.826Z,46.12
2019-03-26T13:29:48.397Z,47.01
2019-03-26T13:32:15.772Z,46.19
2019-03-26T13:34:43.134Z,45.30
2019-03-26T13:37:10.498Z,44.60
2019-03-26T13:39:37.900Z,44.93
2019-03-26T13:42:05.220Z,47.00
2019-03-26T13:44:32.495Z,46.80
2019-03-26T13:46:59.836Z,46.78
2019-03-26T13:49:27.345Z,46.67
2019-03-26T13:51:54.789Z,47.16
2019-03-26T13:54:22.151Z,48.30
2019-03-26T13:56:49.986Z,47.24
2019-03-26T13:59:17.215Z,47.45
2019-03-26T14:01:44.581Z,47.73
2019-03-26T14:04:11.980Z,48.48
2019-03-26T14:06:39.308Z,47.31
2019-03-26T14:09:07.249Z,47.19
2019-03-26T14:11:34.517Z,47.82
2019-03-26T14:14:02.004Z,48.85
2019-03-26T14:16:29.256Z,47.87
2019-03-26T14:18:56.629Z,46.05
2019-03-26T14:21:23.965Z,46.45
2019-03-26T14:23:52.614Z,46.26
2019-03-26T14:26:19.840Z,47.16
2019-03-26T14:28:47.170Z,46.47
2019-03-26T14:31:14.568Z,46.54
2019-03-26T14:33:42.420Z,46.02
2019-03-26T14:36:10.486Z,46.06
2019-03-26T14:38:38.211Z,47.92
2019-03-26T14:41:05.638Z,47.90
2019-03-26T14:43:33.114Z,47.77
2019-03-26T14:46:00.537Z,45.82
2019-03-26T14:48:27.883Z,44.86
2019-03-26T14:50:55.219Z,45.09
2019-03-26T14:53:22.678Z,46.03
2019-03-26T14:55:50.016Z,47.47
2019-03-26T14:58:17.544Z,47.14
2019-03-26T15:00:44.836Z,46.21
2019-03-26T15:03:12.263Z,46.23
2019-03-26T15:05:39.647Z,47.06
2019-03-26T15:08:10.092Z,46.82
2019-03-26T15:10:37.570Z,47.38
2019-03-26T15:13:05.270Z,46.00
2019-03-26T15:15:32.500Z,47.46
2019-03-26T15:17:59.954Z,45.51
2019-03-26T15:20:27.507Z,45.66
2019-03-26T15:22:57.914Z,47.04
2019-03-26T15:25:24.059Z,47.14
2019-03-26T15:27:51.276Z,47.11
2019-03-26T15:30:19.129Z,49.01
2019-03-26T15:32:46.494Z,47.64
2019-03-26T15:35:14.006Z,48.29
2019-03-26T15:37:41.351Z,48.69
2019-03-26T15:40:08.970Z,48.28
2019-03-26T15:42:36.436Z,49.68
2019-03-26T15:47:33.906Z,48.85
2019-03-26T15:50:01.373Z,47.27
2019-03-26T15:52:28.707Z,47.33
2019-03-26T15:54:56.777Z,48.20
2019-03-26T15:57:24.064Z,46.60
2019-03-26T15:59:52.630Z,46.77
2019-03-26T16:02:20.059Z,47.30
2019-03-26T16:04:47.413Z,46.56
2019-03-26T16:07:14.866Z,46.96
2019-03-26T16:09:42.208Z,47.52
2019-03-26T16:12:09.613Z,48.01
2019-03-26T16:14:37.016Z,47.88
2019-03-26T16:17:04.345Z,48.91
2019-03-26T16:19:32.880Z,48.31
2019-03-26T16:22:00.375Z,48.77
2019-03-26T16:24:27.628Z,47.79
2019-03-26T16:26:55.071Z,48.11
2019-03-26T16:29:22.410Z,47.67
2019-03-26T16:31:49.885Z,48.42
2019-03-26T16:34:17.461Z,48.47
2019-03-26T16:36:58.521Z,48.92
2019-03-26T16:39:14.097Z,48.04
2019-03-26T16:41:49.075Z,47.96
2019-03-26T16:44:10.706Z,46.97
2019-03-26T16:46:38.087Z,46.15
2019-03-26T16:49:05.449Z,46.73
2019-03-26T16:51:32.832Z,47.05
2019-03-26T16:54:00.154Z,46.49
2019-03-26T16:56:27.469Z,48.02
2019-03-26T16:58:54.697Z,47.55
2019-03-26T17:01:22.059Z,47.43
2019-03-26T17:03:49.510Z,48.24
2019-03-26T17:06:16.734Z,49.73
2019-03-26T17:08:44.084Z,49.80
2019-03-26T17:11:11.415Z,49.08
2019-03-26T17:13:38.735Z,49.73
2019-03-26T17:16:06.157Z,50.04
2019-03-26T17:18:33.602Z,50.66
2019-03-26T17:21:00.841Z,50.22
2019-03-26T17:23:28.452Z,50.81
2019-03-26T17:25:55.822Z,50.20
2019-03-26T17:28:23.073Z,50.67
2019-03-26T17:30:50.423Z,49.10
2019-03-26T17:33:17.656Z,48.29
2019-03-26T17:35:45.004Z,48.87
2019-03-26T17:38:12.314Z,50.09
2019-03-26T17:40:39.732Z,49.23
2019-03-26T17:43:07.032Z,50.51
2019-03-26T17:45:34.331Z,50.10
2019-03-26T17:48:01.803Z,50.13
2019-03-26T17:50:29.416Z,50.38
2019-03-26T17:52:56.664Z,50.19
2019-03-26T17:55:24.127Z,50.11
2019-03-26T17:57:52.780Z,51.00
2019-03-26T18:00:37.619Z,50.63
2019-03-26T18:03:05.086Z,51.57
2019-03-26T18:05:32.663Z,51.45
2019-03-26T18:08:00.071Z,51.34
2019-03-26T18:10:27.497Z,51.45
2019-03-26T18:12:54.818Z,52.33
2019-03-26T18:15:22.712Z,51.61
2019-03-26T18:17:50.030Z,51.73
2019-03-26T18:20:17.370Z,51.82
2019-03-26T18:22:44.775Z,52.08
2019-03-26T18:25:12.125Z,52.78
2019-03-26T18:27:39.625Z,53.43
2019-03-26T18:30:07.136Z,53.38
2019-03-26T18:32:34.385Z,53.73
2019-03-26T18:35:01.775Z,54.02
2019-03-26T18:37:29.083Z,53.28
2019-03-26T18:39:57.061Z,54.32
2019-03-26T18:42:24.476Z,54.33
2019-03-26T18:44:51.807Z,53.56
2019-03-26T18:47:19.130Z,53.09
2019-03-26T18:49:46.541Z,52.94
2019-03-26T18:52:15.717Z,53.65
2019-03-26T18:54:43.116Z,53.36
2019-03-26T18:57:10.567Z,53.69
2019-03-26T18:59:37.885Z,53.54
2019-03-26T19:02:05.271Z,53.35
2019-03-26T19:04:32.772Z,53.55
2019-03-26T19:07:00.183Z,53.66
2019-03-26T19:09:27.407Z,53.34
2019-03-26T19:11:54.720Z,53.69
2019-03-26T19:14:22.123Z,53.35
2019-03-26T19:16:49.505Z,54.25
2019-03-26T19:19:16.986Z,54.15
2019-03-26T19:21:44.325Z,54.38
2019-03-26T19:24:11.624Z,54.35
2019-03-26T19:26:39.057Z,55.20
2019-03-26T19:29:06.418Z,54.08
2019-03-26T19:31:33.693Z,54.31
2019-03-26T19:34:01.081Z,54.01
2019-03-26T19:36:28.697Z,54.66
2019-03-26T19:38:56.099Z,54.16
2019-03-26T19:41:23.393Z,53.97
2019-03-26T19:43:50.799Z,54.34
2019-03-26T19:46:18.017Z,54.68
2019-03-26T19:48:45.401Z,54.82
2019-03-26T19:51:12.626Z,54.99
2019-03-26T19:53:40.081Z,55.33
2019-03-26T19:56:07.399Z,55.14
2019-03-26T19:58:34.712Z,55.40
2019-03-26T20:01:02.021Z,56.19
2019-03-26T20:03:30.306Z,54.80
2019-03-26T20:05:57.662Z,55.10
2019-03-26T20:08:24.976Z,54.98
2019-03-26T20:10:52.351Z,55.30
2019-03-26T20:13:24.538Z,56.22
2019-03-26T20:15:49.051Z,56.05
2019-03-26T20:18:16.509Z,56.54
2019-03-26T20:20:43.818Z,56.55
2019-03-26T20:23:11.224Z,55.54
2019-03-26T20:25:38.681Z,55.56
2019-03-26T20:28:06.050Z,55.79
2019-03-26T20:30:33.405Z,55.44
2019-03-26T20:33:00.759Z,56.21
2019-03-26T20:35:28.075Z,55.88
2019-03-26T20:37:55.456Z,56.07
2019-03-26T20:40:22.831Z,55.97
2019-03-26T20:42:51.869Z,55.81
2019-03-26T20:45:19.305Z,55.83
2019-03-26T20:47:46.635Z,55.65
2019-03-26T20:50:14.378Z,55.93
2019-03-26T20:52:41.774Z,55.83
2019-03-26T20:55:09.829Z,55.77
2019-03-26T20:57:38.368Z,56.39
2019-03-26T21:00:06.811Z,56.33
2019-03-26T21:02:34.233Z,56.41
2019-03-26T21:05:01.806Z,56.71
2019-03-26T21:07:29.217Z,56.88
2019-03-26T21:09:56.710Z,56.01
2019-03-26T21:12:23.948Z,55.63
2019-03-26T21:14:51.321Z,56.05
2019-03-26T21:17:18.612Z,56.48
2019-03-26T21:19:46.075Z,56.67
2019-03-26T21:22:13.497Z,56.94
2019-03-26T21:24:40.866Z,56.51
2019-03-26T21:27:09.277Z,56.50
2019-03-26T21:29:36.577Z,56.75
2019-03-26T21:32:03.967Z,57.01
2019-03-26T21:34:31.275Z,56.78
2019-03-26T21:36:58.580Z,57.00
2019-03-26T21:39:25.946Z,57.58
2019-03-26T21:41:53.310Z,57.61
2019-03-26T21:44:20.675Z,57.72
2019-03-26T21:46:48.142Z,57.49
2019-03-26T21:49:15.571Z,57.61
2019-03-26T21:51:42.955Z,57.96
2019-03-26T21:54:10.275Z,57.95
2019-03-26T21:56:37.653Z,57.75
2019-03-26T21:59:05.057Z,57.68
2019-03-26T22:01:33.499Z,57.82
2019-03-26T22:04:00.895Z,58.08
2019-03-26T22:06:28.213Z,58.10
2019-03-26T22:08:55.667Z,57.99
2019-03-26T22:11:23.045Z,58.25
2019-03-26T22:13:51.429Z,58.27
2019-03-26T22:16:18.882Z,58.85
2019-03-26T22:18:46.314Z,59.24
2019-03-26T22:21:13.699Z,59.09
2019-03-26T22:23:41.025Z,59.37
2019-03-26T22:26:08.464Z,59.52
2019-03-26T22:28:35.798Z,60.79
2019-03-26T22:31:03.131Z,61.65
2019-03-26T22:33:30.585Z,63.12
2019-03-26T22:35:57.968Z,64.81
2019-03-26T22:38:25.339Z,63.72
2019-03-26T22:40:53.776Z,63.39
2019-03-26T22:43:21.333Z,65.79
2019-03-26T22:45:49.837Z,65.97
2019-03-26T22:48:17.060Z,65.89
2019-03-26T22:50:44.413Z,65.77
2019-03-26T22:53:11.773Z,66.56
2019-03-26T22:55:38.972Z,66.53
2019-03-26T22:58:08.123Z,67.02
2019-03-26T23:00:35.856Z,67.78
2019-03-26T23:03:04.098Z,67.82
2019-03-26T23:05:31.380Z,69.20
2019-03-26T23:07:58.691Z,67.58
2019-03-26T23:10:26.031Z,69.04
2019-03-26T23:12:53.346Z,69.12
2019-03-26T23:15:22.348Z,70.79
2019-03-26T23:17:49.655Z,70.60
2019-03-26T23:20:17.987Z,70.97
2019-03-26T23:22:45.244Z,70.47
2019-03-26T23:25:12.840Z,71.01
2019-03-26T23:27:40.236Z,72.19
2019-03-26T23:30:07.686Z,71.96
2019-03-26T23:32:34.886Z,72.27
2019-03-26T23:35:02.200Z,72.70
2019-03-26T23:37:29.517Z,72.51
2019-03-26T23:39:56.740Z,72.24
2019-03-26T23:42:23.945Z,72.59
2019-03-26T23:44:58.158Z,73.02
2019-03-26T23:47:20.460Z,71.93
2019-03-26T23:49:47.769Z,72.44
2019-03-26T23:52:15.110Z,73.06
2019-03-26T23:54:42.651Z,72.86
2019-03-26T23:57:09.863Z,73.57
2019-03-26T23:59:37.145Z,74.13
